Adaville, Iowa
Current Conditions -  °F | °C
As of 8:55 PM on Tuesday 25 Nov 2014 (Local Time) from KLRJ Reporting Station
Unknown Precip Unknown Precip  
Wind Chill: 26°   Ceiling: 1600
Heat Index: 34°   Visibility: 7mi
Dew Point: 30°   Wind: 10mph
Humidity: 87%   Direction: 150°SSE
Pressure: 29.87"   Gusts: 16mph
Location:  42.7082°N, 96.485°W
Report Text: KLRJ 260255Z AUTO 15009G14KT 7SM -UP BKN016 OVC027 01/M01 A2987 RMK AO2
Loading
Personal Weather Stations






























Interactive Weather Map New forecast layout! Learn more

10-Day Weather Forecast

Advertisements
Track Severe Weather on mobile